sensor_id;sensor_type;location;lat;lon;timestamp;temperature;humidity
3562;DHT22;1795;52.074;4.754;2023-04-29T00:00:59;10.70;99.90
3562;DHT22;1795;52.074;4.754;2023-04-29T00:03:27;10.60;99.90
3562;DHT22;1795;52.074;4.754;2023-04-29T00:05:58;10.60;99.90
3562;DHT22;1795;52.074;4.754;2023-04-29T00:08:27;10.60;99.90
3562;DHT22;1795;52.074;4.754;2023-04-29T00:10:55;10.60;99.90
3562;DHT22;1795;52.074;4.754;2023-04-29T00:13:23;10.60;99.90
3562;DHT22;1795;52.074;4.754;2023-04-29T00:15:53;10.60;99.90
3562;DHT22;1795;52.074;4.754;2023-04-29T00:18:20;10.60;99.90
3562;DHT22;1795;52.074;4.754;2023-04-29T00:20:48;10.60;99.90
3562;DHT22;1795;52.074;4.754;2023-04-29T00:23:16;10.60;99.90
3562;DHT22;1795;52.074;4.754;2023-04-29T00:25:44;10.60;99.90
3562;DHT22;1795;52.074;4.754;2023-04-29T00:28:12;10.60;99.90
3562;DHT22;1795;52.074;4.754;2023-04-29T00:30:40;10.60;99.90
3562;DHT22;1795;52.074;4.754;2023-04-29T00:33:09;10.60;99.90
3562;DHT22;1795;52.074;4.754;2023-04-29T00:35:38;10.60;99.90
3562;DHT22;1795;52.074;4.754;2023-04-29T00:38:06;10.50;99.90
3562;DHT22;1795;52.074;4.754;2023-04-29T00:40:34;10.50;99.90
3562;DHT22;1795;52.074;4.754;2023-04-29T00:43:02;10.50;99.90
3562;DHT22;1795;52.074;4.754;2023-04-29T00:45:30;10.50;99.90
3562;DHT22;1795;52.074;4.754;2023-04-29T00:47:58;10.50;99.90
3562;DHT22;1795;52.074;4.754;2023-04-29T00:50:28;10.50;99.90
3562;DHT22;1795;52.074;4.754;2023-04-29T00:52:56;10.50;99.90
3562;DHT22;1795;52.074;4.754;2023-04-29T00:55:24;10.50;99.90
3562;DHT22;1795;52.074;4.754;2023-04-29T00:57:53;10.50;99.90
3562;DHT22;1795;52.074;4.754;2023-04-29T01:00:21;10.50;99.90
3562;DHT22;1795;52.074;4.754;2023-04-29T01:02:51;10.50;99.90
3562;DHT22;1795;52.074;4.754;2023-04-29T01:05:19;10.50;99.90
3562;DHT22;1795;52.074;4.754;2023-04-29T01:08:07;10.40;99.90
3562;DHT22;1795;52.074;4.754;2023-04-29T01:10:43;10.40;99.90
3562;DHT22;1795;52.074;4.754;2023-04-29T01:13:16;10.40;99.90
3562;DHT22;1795;52.074;4.754;2023-04-29T01:15:55;10.40;99.90
3562;DHT22;1795;52.074;4.754;2023-04-29T01:18:31;10.40;99.90
3562;DHT22;1795;52.074;4.754;2023-04-29T01:21:00;10.40;99.90
3562;DHT22;1795;52.074;4.754;2023-04-29T01:23:29;10.40;99.90
3562;DHT22;1795;52.074;4.754;2023-04-29T01:25:58;10.40;99.90
3562;DHT22;1795;52.074;4.754;2023-04-29T01:28:39;10.40;99.90
3562;DHT22;1795;52.074;4.754;2023-04-29T01:31:10;10.40;99.90
3562;DHT22;1795;52.074;4.754;2023-04-29T01:33:43;10.40;99.90
3562;DHT22;1795;52.074;4.754;2023-04-29T01:36:21;10.40;99.90
3562;DHT22;1795;52.074;4.754;2023-04-29T01:38:59;10.40;99.90
3562;DHT22;1795;52.074;4.754;2023-04-29T01:41:34;10.40;99.90
3562;DHT22;1795;52.074;4.754;2023-04-29T01:44:03;10.40;99.90
3562;DHT22;1795;52.074;4.754;2023-04-29T01:46:35;10.40;99.90
3562;DHT22;1795;52.074;4.754;2023-04-29T01:49:03;10.40;99.90
3562;DHT22;1795;52.074;4.754;2023-04-29T01:51:31;10.40;99.90
3562;DHT22;1795;52.074;4.754;2023-04-29T01:54:01;10.30;99.90
3562;DHT22;1795;52.074;4.754;2023-04-29T01:56:30;10.30;99.90
3562;DHT22;1795;52.074;4.754;2023-04-29T01:58:58;10.30;99.90
3562;DHT22;1795;52.074;4.754;2023-04-29T02:01:26;10.40;99.90
3562;DHT22;1795;52.074;4.754;2023-04-29T02:03:54;10.30;99.90
3562;DHT22;1795;52.074;4.754;2023-04-29T02:06:22;10.30;99.90
3562;DHT22;1795;52.074;4.754;2023-04-29T02:08:50;10.30;99.90
3562;DHT22;1795;52.074;4.754;2023-04-29T02:11:20;10.30;99.90
3562;DHT22;1795;52.074;4.754;2023-04-29T02:13:48;10.30;99.90
3562;DHT22;1795;52.074;4.754;2023-04-29T02:16:16;10.30;99.90
3562;DHT22;1795;52.074;4.754;2023-04-29T02:18:44;10.30;99.90
3562;DHT22;1795;52.074;4.754;2023-04-29T02:21:12;10.30;99.90
3562;DHT22;1795;52.074;4.754;2023-04-29T02:23:40;10.30;99.90
3562;DHT22;1795;52.074;4.754;2023-04-29T02:26:08;10.30;99.90
3562;DHT22;1795;52.074;4.754;2023-04-29T02:28:37;10.30;99.90
3562;DHT22;1795;52.074;4.754;2023-04-29T02:31:05;10.30;99.90
3562;DHT22;1795;52.074;4.754;2023-04-29T02:33:33;10.30;99.90
3562;DHT22;1795;52.074;4.754;2023-04-29T02:36:01;10.30;99.90
3562;DHT22;1795;52.074;4.754;2023-04-29T02:38:29;10.30;99.90
3562;DHT22;1795;52.074;4.754;2023-04-29T02:40:57;10.30;99.90
3562;DHT22;1795;52.074;4.754;2023-04-29T02:43:25;10.30;99.90
3562;DHT22;1795;52.074;4.754;2023-04-29T02:45:57;10.30;99.90
3562;DHT22;1795;52.074;4.754;2023-04-29T02:48:26;10.20;99.90
3562;DHT22;1795;52.074;4.754;2023-04-29T02:50:54;10.30;99.90
3562;DHT22;1795;52.074;4.754;2023-04-29T02:53:22;10.30;99.90
3562;DHT22;1795;52.074;4.754;2023-04-29T02:55:50;10.20;99.90
3562;DHT22;1795;52.074;4.754;2023-04-29T02:58:17;10.20;99.90
3562;DHT22;1795;52.074;4.754;2023-04-29T03:00:45;10.20;99.90
3562;DHT22;1795;52.074;4.754;2023-04-29T03:03:15;10.20;99.90
3562;DHT22;1795;52.074;4.754;2023-04-29T03:05:43;10.20;99.90
3562;DHT22;1795;52.074;4.754;2023-04-29T03:08:11;10.20;99.90
3562;DHT22;1795;52.074;4.754;2023-04-29T03:10:39;10.20;99.90
3562;DHT22;1795;52.074;4.754;2023-04-29T03:13:07;10.20;99.90
3562;DHT22;1795;52.074;4.754;2023-04-29T03:15:35;10.20;99.90
3562;DHT22;1795;52.074;4.754;2023-04-29T03:18:04;10.20;99.90
3562;DHT22;1795;52.074;4.754;2023-04-29T03:20:34;10.20;99.90
3562;DHT22;1795;52.074;4.754;2023-04-29T03:23:02;10.20;99.90
3562;DHT22;1795;52.074;4.754;2023-04-29T03:25:30;10.20;99.90
3562;DHT22;1795;52.074;4.754;2023-04-29T03:27:58;10.20;99.90
3562;DHT22;1795;52.074;4.754;2023-04-29T03:30:26;10.20;99.90
3562;DHT22;1795;52.074;4.754;2023-04-29T03:32:54;10.20;99.90
3562;DHT22;1795;52.074;4.754;2023-04-29T03:35:22;10.20;99.90
3562;DHT22;1795;52.074;4.754;2023-04-29T03:37:51;10.20;99.90
3562;DHT22;1795;52.074;4.754;2023-04-29T03:40:19;10.20;99.90
3562;DHT22;1795;52.074;4.754;2023-04-29T03:42:47;10.20;99.90
3562;DHT22;1795;52.074;4.754;2023-04-29T03:45:16;10.20;99.90
3562;DHT22;1795;52.074;4.754;2023-04-29T03:47:43;10.10;99.90
3562;DHT22;1795;52.074;4.754;2023-04-29T03:50:11;10.20;99.90
3562;DHT22;1795;52.074;4.754;2023-04-29T03:52:39;10.10;99.90
3562;DHT22;1795;52.074;4.754;2023-04-29T03:55:09;10.20;99.90
3562;DHT22;1795;52.074;4.754;2023-04-29T03:57:38;10.10;99.90
3562;DHT22;1795;52.074;4.754;2023-04-29T04:00:09;10.10;99.90
3562;DHT22;1795;52.074;4.754;2023-04-29T04:02:37;10.10;99.90
3562;DHT22;1795;52.074;4.754;2023-04-29T04:05:05;10.10;99.90
3562;DHT22;1795;52.074;4.754;2023-04-29T04:07:33;10.10;99.90
3562;DHT22;1795;52.074;4.754;2023-04-29T04:10:01;10.20;99.90
3562;DHT22;1795;52.074;4.754;2023-04-29T04:12:30;10.10;99.90
3562;DHT22;1795;52.074;4.754;2023-04-29T04:14:58;10.10;99.90
3562;DHT22;1795;52.074;4.754;2023-04-29T04:17:26;10.10;99.90
3562;DHT22;1795;52.074;4.754;2023-04-29T04:19:54;10.10;99.90
3562;DHT22;1795;52.074;4.754;2023-04-29T04:22:22;10.10;99.90
3562;DHT22;1795;52.074;4.754;2023-04-29T04:24:50;10.10;99.90
3562;DHT22;1795;52.074;4.754;2023-04-29T04:27:18;10.10;99.90
3562;DHT22;1795;52.074;4.754;2023-04-29T04:29:47;10.10;99.90
3562;DHT22;1795;52.074;4.754;2023-04-29T04:32:15;10.10;99.90
3562;DHT22;1795;52.074;4.754;2023-04-29T04:34:43;10.10;99.90
3562;DHT22;1795;52.074;4.754;2023-04-29T04:37:11;10.10;99.90
3562;DHT22;1795;52.074;4.754;2023-04-29T04:39:39;10.10;99.90
3562;DHT22;1795;52.074;4.754;2023-04-29T04:42:07;10.10;99.90
3562;DHT22;1795;52.074;4.754;2023-04-29T04:44:35;10.10;99.90
3562;DHT22;1795;52.074;4.754;2023-04-29T04:47:04;10.10;99.90
3562;DHT22;1795;52.074;4.754;2023-04-29T04:49:32;10.10;99.90
3562;DHT22;1795;52.074;4.754;2023-04-29T04:52:00;10.10;99.90
3562;DHT22;1795;52.074;4.754;2023-04-29T04:54:28;10.10;99.90
3562;DHT22;1795;52.074;4.754;2023-04-29T04:56:56;10.10;99.90
3562;DHT22;1795;52.074;4.754;2023-04-29T04:59:24;10.10;99.90
3562;DHT22;1795;52.074;4.754;2023-04-29T05:01:52;10.10;99.90
3562;DHT22;1795;52.074;4.754;2023-04-29T05:04:22;10.10;99.90
3562;DHT22;1795;52.074;4.754;2023-04-29T05:06:50;10.10;99.90
3562;DHT22;1795;52.074;4.754;2023-04-29T05:09:18;10.10;99.90
3562;DHT22;1795;52.074;4.754;2023-04-29T05:11:46;10.10;99.90
3562;DHT22;1795;52.074;4.754;2023-04-29T05:14:14;10.10;99.90
3562;DHT22;1795;52.074;4.754;2023-04-29T05:16:42;10.10;99.90
3562;DHT22;1795;52.074;4.754;2023-04-29T05:19:12;10.10;99.90
3562;DHT22;1795;52.074;4.754;2023-04-29T05:21:41;10.10;99.90
3562;DHT22;1795;52.074;4.754;2023-04-29T05:24:09;10.10;99.90
3562;DHT22;1795;52.074;4.754;2023-04-29T05:26:37;10.10;99.90
3562;DHT22;1795;52.074;4.754;2023-04-29T05:29:05;10.10;99.90
3562;DHT22;1795;52.074;4.754;2023-04-29T05:31:33;10.10;99.90
3562;DHT22;1795;52.074;4.754;2023-04-29T05:34:01;10.10;99.90
3562;DHT22;1795;52.074;4.754;2023-04-29T05:36:29;10.10;99.90
3562;DHT22;1795;52.074;4.754;2023-04-29T05:38:58;10.10;99.90
3562;DHT22;1795;52.074;4.754;2023-04-29T05:41:26;10.20;99.90
3562;DHT22;1795;52.074;4.754;2023-04-29T05:43:54;10.20;99.90
3562;DHT22;1795;52.074;4.754;2023-04-29T05:46:22;10.10;99.90
3562;DHT22;1795;52.074;4.754;2023-04-29T05:48:50;10.20;99.90
3562;DHT22;1795;52.074;4.754;2023-04-29T05:51:18;10.20;99.90
3562;DHT22;1795;52.074;4.754;2023-04-29T05:53:45;10.20;99.90
3562;DHT22;1795;52.074;4.754;2023-04-29T05:56:15;10.20;99.90
3562;DHT22;1795;52.074;4.754;2023-04-29T05:58:44;10.20;99.90
3562;DHT22;1795;52.074;4.754;2023-04-29T06:01:12;10.20;99.90
3562;DHT22;1795;52.074;4.754;2023-04-29T06:03:40;10.20;99.90
3562;DHT22;1795;52.074;4.754;2023-04-29T06:06:08;10.20;99.90
3562;DHT22;1795;52.074;4.754;2023-04-29T06:08:37;10.30;99.90
3562;DHT22;1795;52.074;4.754;2023-04-29T06:11:04;10.30;99.90
3562;DHT22;1795;52.074;4.754;2023-04-29T06:13:34;10.30;99.90
3562;DHT22;1795;52.074;4.754;2023-04-29T06:16:02;10.40;99.90
3562;DHT22;1795;52.074;4.754;2023-04-29T06:18:30;10.40;99.90
3562;DHT22;1795;52.074;4.754;2023-04-29T06:20:58;10.40;99.90
3562;DHT22;1795;52.074;4.754;2023-04-29T06:23:26;10.40;99.90
3562;DHT22;1795;52.074;4.754;2023-04-29T06:25:54;10.40;99.90
3562;DHT22;1795;52.074;4.754;2023-04-29T06:28:21;10.50;99.90
3562;DHT22;1795;52.074;4.754;2023-04-29T06:30:51;10.50;99.90
3562;DHT22;1795;52.074;4.754;2023-04-29T06:33:19;10.50;99.90
3562;DHT22;1795;52.074;4.754;2023-04-29T06:35:47;10.60;99.90
3562;DHT22;1795;52.074;4.754;2023-04-29T06:38:14;10.60;99.90
3562;DHT22;1795;52.074;4.754;2023-04-29T06:40:42;10.60;99.90
3562;DHT22;1795;52.074;4.754;2023-04-29T06:43:10;10.70;99.90
3562;DHT22;1795;52.074;4.754;2023-04-29T06:45:38;10.80;99.90
3562;DHT22;1795;52.074;4.754;2023-04-29T06:48:07;10.80;99.90
3562;DHT22;1795;52.074;4.754;2023-04-29T06:50:35;10.90;99.90
3562;DHT22;1795;52.074;4.754;2023-04-29T06:53:03;10.90;99.90
3562;DHT22;1795;52.074;4.754;2023-04-29T06:55:31;11.00;99.90
3562;DHT22;1795;52.074;4.754;2023-04-29T06:57:59;11.00;99.90
3562;DHT22;1795;52.074;4.754;2023-04-29T07:00:27;11.10;99.90
3562;DHT22;1795;52.074;4.754;2023-04-29T07:02:55;11.10;99.90
3562;DHT22;1795;52.074;4.754;2023-04-29T07:05:24;11.10;99.90
3562;DHT22;1795;52.074;4.754;2023-04-29T07:07:52;11.20;99.90
3562;DHT22;1795;52.074;4.754;2023-04-29T07:10:20;11.20;99.90
3562;DHT22;1795;52.074;4.754;2023-04-29T07:12:48;11.30;99.90
3562;DHT22;1795;52.074;4.754;2023-04-29T07:15:16;11.30;99.90
3562;DHT22;1795;52.074;4.754;2023-04-29T07:17:44;11.30;99.90
3562;DHT22;1795;52.074;4.754;2023-04-29T07:20:12;11.40;99.90
3562;DHT22;1795;52.074;4.754;2023-04-29T07:22:42;11.40;99.90
3562;DHT22;1795;52.074;4.754;2023-04-29T07:25:10;11.50;99.90
3562;DHT22;1795;52.074;4.754;2023-04-29T07:27:38;11.50;99.90
3562;DHT22;1795;52.074;4.754;2023-04-29T07:30:06;11.60;99.90
3562;DHT22;1795;52.074;4.754;2023-04-29T07:32:34;11.60;99.90
3562;DHT22;1795;52.074;4.754;2023-04-29T07:35:03;11.60;99.90
3562;DHT22;1795;52.074;4.754;2023-04-29T07:37:31;11.70;99.90
3562;DHT22;1795;52.074;4.754;2023-04-29T07:40:00;11.70;99.90
3562;DHT22;1795;52.074;4.754;2023-04-29T07:42:28;11.70;99.90
3562;DHT22;1795;52.074;4.754;2023-04-29T07:44:56;11.80;99.90
3562;DHT22;1795;52.074;4.754;2023-04-29T07:47:24;11.80;99.90
3562;DHT22;1795;52.074;4.754;2023-04-29T07:49:52;11.90;99.90
3562;DHT22;1795;52.074;4.754;2023-04-29T07:52:20;11.90;99.90
3562;DHT22;1795;52.074;4.754;2023-04-29T07:54:48;12.00;99.90
3562;DHT22;1795;52.074;4.754;2023-04-29T07:57:18;12.00;99.90
3562;DHT22;1795;52.074;4.754;2023-04-29T07:59:46;12.10;99.90
3562;DHT22;1795;52.074;4.754;2023-04-29T08:02:14;12.10;99.90
3562;DHT22;1795;52.074;4.754;2023-04-29T08:04:42;12.20;99.90
3562;DHT22;1795;52.074;4.754;2023-04-29T08:07:10;12.20;99.90
3562;DHT22;1795;52.074;4.754;2023-04-29T08:09:38;12.20;99.90
3562;DHT22;1795;52.074;4.754;2023-04-29T08:12:06;12.30;99.90
3562;DHT22;1795;52.074;4.754;2023-04-29T08:14:36;12.30;99.90
3562;DHT22;1795;52.074;4.754;2023-04-29T08:17:03;12.40;99.90
3562;DHT22;1795;52.074;4.754;2023-04-29T08:19:31;12.40;99.90
3562;DHT22;1795;52.074;4.754;2023-04-29T08:21:59;12.50;99.90
3562;DHT22;1795;52.074;4.754;2023-04-29T08:24:29;12.50;99.90
3562;DHT22;1795;52.074;4.754;2023-04-29T08:26:59;12.50;99.90
3562;DHT22;1795;52.074;4.754;2023-04-29T08:29:29;12.60;99.90
3562;DHT22;1795;52.074;4.754;2023-04-29T08:31:59;12.70;99.90
3562;DHT22;1795;52.074;4.754;2023-04-29T08:34:28;12.70;99.90
3562;DHT22;1795;52.074;4.754;2023-04-29T08:36:56;12.70;99.90
3562;DHT22;1795;52.074;4.754;2023-04-29T08:39:24;12.80;99.90
3562;DHT22;1795;52.074;4.754;2023-04-29T08:41:52;12.80;99.90
3562;DHT22;1795;52.074;4.754;2023-04-29T08:44:22;12.90;99.90
3562;DHT22;1795;52.074;4.754;2023-04-29T08:46:50;12.90;99.90
3562;DHT22;1795;52.074;4.754;2023-04-29T08:49:20;12.90;99.90
3562;DHT22;1795;52.074;4.754;2023-04-29T08:51:48;13.00;99.90
3562;DHT22;1795;52.074;4.754;2023-04-29T08:54:17;13.00;99.90
3562;DHT22;1795;52.074;4.754;2023-04-29T08:56:46;13.00;99.90
3562;DHT22;1795;52.074;4.754;2023-04-29T08:59:14;13.10;99.90
3562;DHT22;1795;52.074;4.754;2023-04-29T09:01:46;13.10;99.90
3562;DHT22;1795;52.074;4.754;2023-04-29T09:04:32;13.20;99.90
3562;DHT22;1795;52.074;4.754;2023-04-29T09:07:05;13.20;99.90
3562;DHT22;1795;52.074;4.754;2023-04-29T09:09:34;13.30;99.90
3562;DHT22;1795;52.074;4.754;2023-04-29T09:12:02;13.30;99.90
3562;DHT22;1795;52.074;4.754;2023-04-29T09:14:32;13.30;99.90
3562;DHT22;1795;52.074;4.754;2023-04-29T09:17:00;13.40;99.90
3562;DHT22;1795;52.074;4.754;2023-04-29T09:19:30;13.40;99.90
3562;DHT22;1795;52.074;4.754;2023-04-29T09:21:59;13.40;99.90
3562;DHT22;1795;52.074;4.754;2023-04-29T09:24:28;13.50;99.90
3562;DHT22;1795;52.074;4.754;2023-04-29T09:26:57;13.60;99.90
3562;DHT22;1795;52.074;4.754;2023-04-29T09:29:25;13.60;99.90
3562;DHT22;1795;52.074;4.754;2023-04-29T09:31:54;13.60;99.90
3562;DHT22;1795;52.074;4.754;2023-04-29T09:34:32;13.70;99.90
3562;DHT22;1795;52.074;4.754;2023-04-29T09:37:01;13.70;99.90
3562;DHT22;1795;52.074;4.754;2023-04-29T09:39:37;13.80;99.90
3562;DHT22;1795;52.074;4.754;2023-04-29T09:42:05;13.90;99.90
3562;DHT22;1795;52.074;4.754;2023-04-29T09:44:35;13.90;99.90
3562;DHT22;1795;52.074;4.754;2023-04-29T09:47:04;13.90;99.90
3562;DHT22;1795;52.074;4.754;2023-04-29T09:49:35;14.00;99.90
3562;DHT22;1795;52.074;4.754;2023-04-29T09:52:05;14.10;99.90
3562;DHT22;1795;52.074;4.754;2023-04-29T09:54:34;14.20;99.90
3562;DHT22;1795;52.074;4.754;2023-04-29T09:57:03;14.20;99.90
3562;DHT22;1795;52.074;4.754;2023-04-29T09:59:33;14.30;99.90
3562;DHT22;1795;52.074;4.754;2023-04-29T10:02:06;14.40;99.90
3562;DHT22;1795;52.074;4.754;2023-04-29T10:04:39;14.40;99.90
3562;DHT22;1795;52.074;4.754;2023-04-29T10:07:08;14.50;99.90
3562;DHT22;1795;52.074;4.754;2023-04-29T10:09:36;14.60;99.90
3562;DHT22;1795;52.074;4.754;2023-04-29T10:12:06;14.70;99.90
3562;DHT22;1795;52.074;4.754;2023-04-29T10:14:44;14.80;99.90
3562;DHT22;1795;52.074;4.754;2023-04-29T10:17:17;14.90;99.90
3562;DHT22;1795;52.074;4.754;2023-04-29T10:19:53;14.90;99.90
3562;DHT22;1795;52.074;4.754;2023-04-29T10:22:28;15.00;99.90
3562;DHT22;1795;52.074;4.754;2023-04-29T10:25:00;15.10;99.90
3562;DHT22;1795;52.074;4.754;2023-04-29T10:27:31;15.20;99.90
3562;DHT22;1795;52.074;4.754;2023-04-29T10:30:01;15.30;99.90
3562;DHT22;1795;52.074;4.754;2023-04-29T10:32:31;15.40;99.90
3562;DHT22;1795;52.074;4.754;2023-04-29T10:35:19;15.50;99.90
3562;DHT22;1795;52.074;4.754;2023-04-29T10:37:49;15.60;99.90
3562;DHT22;1795;52.074;4.754;2023-04-29T10:40:22;15.70;99.90
3562;DHT22;1795;52.074;4.754;2023-04-29T10:42:52;15.80;99.90
3562;DHT22;1795;52.074;4.754;2023-04-29T10:45:22;15.80;99.90
3562;DHT22;1795;52.074;4.754;2023-04-29T10:48:12;15.90;99.90
3562;DHT22;1795;52.074;4.754;2023-04-29T10:50:59;16.00;99.90
3562;DHT22;1795;52.074;4.754;2023-04-29T10:53:28;16.10;99.90
3562;DHT22;1795;52.074;4.754;2023-04-29T10:55:59;16.10;99.90
3562;DHT22;1795;52.074;4.754;2023-04-29T10:58:37;16.20;99.90
3562;DHT22;1795;52.074;4.754;2023-04-29T11:01:06;16.20;99.90
3562;DHT22;1795;52.074;4.754;2023-04-29T11:03:51;16.30;99.90
3562;DHT22;1795;52.074;4.754;2023-04-29T11:06:38;16.40;99.90
3562;DHT22;1795;52.074;4.754;2023-04-29T11:09:11;16.50;99.90
3562;DHT22;1795;52.074;4.754;2023-04-29T11:14:35;16.60;99.90
3562;DHT22;1795;52.074;4.754;2023-04-29T11:17:07;16.70;99.90
3562;DHT22;1795;52.074;4.754;2023-04-29T11:19:39;16.80;99.90
3562;DHT22;1795;52.074;4.754;2023-04-29T11:22:11;16.90;99.90
3562;DHT22;1795;52.074;4.754;2023-04-29T11:24:53;16.90;99.90
3562;DHT22;1795;52.074;4.754;2023-04-29T11:27:23;17.00;99.90
3562;DHT22;1795;52.074;4.754;2023-04-29T11:29:53;17.10;99.90
3562;DHT22;1795;52.074;4.754;2023-04-29T11:32:25;17.20;99.90
3562;DHT22;1795;52.074;4.754;2023-04-29T11:34:53;17.20;99.90
3562;DHT22;1795;52.074;4.754;2023-04-29T11:37:25;17.30;99.90
3562;DHT22;1795;52.074;4.754;2023-04-29T11:39:58;17.40;99.90
3562;DHT22;1795;52.074;4.754;2023-04-29T11:42:27;17.40;99.90
3562;DHT22;1795;52.074;4.754;2023-04-29T11:44:55;17.50;99.90
3562;DHT22;1795;52.074;4.754;2023-04-29T11:47:25;17.60;99.90
3562;DHT22;1795;52.074;4.754;2023-04-29T11:50:02;17.70;99.90
3562;DHT22;1795;52.074;4.754;2023-04-29T11:52:32;17.80;99.90
3562;DHT22;1795;52.074;4.754;2023-04-29T11:55:02;17.90;99.90
3562;DHT22;1795;52.074;4.754;2023-04-29T11:57:30;17.90;99.90
3562;DHT22;1795;52.074;4.754;2023-04-29T11:59:58;18.00;99.90
3562;DHT22;1795;52.074;4.754;2023-04-29T12:02:30;18.10;99.90
3562;DHT22;1795;52.074;4.754;2023-04-29T12:04:58;18.10;99.90
3562;DHT22;1795;52.074;4.754;2023-04-29T12:07:28;18.20;99.90
3562;DHT22;1795;52.074;4.754;2023-04-29T12:09:57;18.30;99.90
3562;DHT22;1795;52.074;4.754;2023-04-29T12:12:25;18.40;99.90
3562;DHT22;1795;52.074;4.754;2023-04-29T12:14:54;18.40;99.90
3562;DHT22;1795;52.074;4.754;2023-04-29T12:17:23;18.50;99.90
3562;DHT22;1795;52.074;4.754;2023-04-29T12:19:51;18.50;99.90
3562;DHT22;1795;52.074;4.754;2023-04-29T12:22:19;18.60;99.90
3562;DHT22;1795;52.074;4.754;2023-04-29T12:24:47;18.70;99.90
3562;DHT22;1795;52.074;4.754;2023-04-29T12:27:17;18.60;99.90
3562;DHT22;1795;52.074;4.754;2023-04-29T12:29:46;18.60;99.90
3562;DHT22;1795;52.074;4.754;2023-04-29T12:32:16;18.50;99.90
3562;DHT22;1795;52.074;4.754;2023-04-29T12:34:45;18.40;99.90
3562;DHT22;1795;52.074;4.754;2023-04-29T12:37:14;18.40;99.90
3562;DHT22;1795;52.074;4.754;2023-04-29T12:39:42;18.40;99.90
3562;DHT22;1795;52.074;4.754;2023-04-29T12:42:14;18.40;99.90
3562;DHT22;1795;52.074;4.754;2023-04-29T12:44:45;18.30;99.90
3562;DHT22;1795;52.074;4.754;2023-04-29T12:47:14;18.20;99.90
3562;DHT22;1795;52.074;4.754;2023-04-29T12:49:43;18.20;99.90
3562;DHT22;1795;52.074;4.754;2023-04-29T12:52:12;18.30;99.90
3562;DHT22;1795;52.074;4.754;2023-04-29T12:54:40;18.30;99.90
3562;DHT22;1795;52.074;4.754;2023-04-29T12:57:09;18.40;99.90
3562;DHT22;1795;52.074;4.754;2023-04-29T12:59:38;18.40;99.90
3562;DHT22;1795;52.074;4.754;2023-04-29T13:02:08;18.50;99.90
3562;DHT22;1795;52.074;4.754;2023-04-29T13:04:36;18.50;99.90
3562;DHT22;1795;52.074;4.754;2023-04-29T13:07:05;18.50;99.90
3562;DHT22;1795;52.074;4.754;2023-04-29T13:09:33;18.50;99.90
3562;DHT22;1795;52.074;4.754;2023-04-29T13:12:04;18.50;99.90
3562;DHT22;1795;52.074;4.754;2023-04-29T13:14:33;18.50;99.90
3562;DHT22;1795;52.074;4.754;2023-04-29T13:17:01;18.60;99.90
3562;DHT22;1795;52.074;4.754;2023-04-29T13:19:31;18.60;99.90
3562;DHT22;1795;52.074;4.754;2023-04-29T13:22:17;18.60;99.90
3562;DHT22;1795;52.074;4.754;2023-04-29T13:24:45;18.70;99.90
3562;DHT22;1795;52.074;4.754;2023-04-29T13:27:13;18.80;99.90
3562;DHT22;1795;52.074;4.754;2023-04-29T13:29:41;18.80;99.90
3562;DHT22;1795;52.074;4.754;2023-04-29T13:32:09;18.70;99.90
3562;DHT22;1795;52.074;4.754;2023-04-29T13:34:38;18.70;99.90
3562;DHT22;1795;52.074;4.754;2023-04-29T13:37:09;18.70;99.90
3562;DHT22;1795;52.074;4.754;2023-04-29T13:39:37;18.70;99.90
3562;DHT22;1795;52.074;4.754;2023-04-29T13:42:05;18.70;99.90
3562;DHT22;1795;52.074;4.754;2023-04-29T13:44:34;18.60;99.90
3562;DHT22;1795;52.074;4.754;2023-04-29T13:47:17;18.60;99.90
3562;DHT22;1795;52.074;4.754;2023-04-29T13:49:53;18.70;99.90
3562;DHT22;1795;52.074;4.754;2023-04-29T13:52:41;18.70;99.90
3562;DHT22;1795;52.074;4.754;2023-04-29T13:55:12;18.70;99.90
3562;DHT22;1795;52.074;4.754;2023-04-29T13:58:00;18.70;99.90
3562;DHT22;1795;52.074;4.754;2023-04-29T14:00:31;18.60;99.90
3562;DHT22;1795;52.074;4.754;2023-04-29T14:03:18;18.60;99.90
3562;DHT22;1795;52.074;4.754;2023-04-29T14:05:48;18.60;99.90
3562;DHT22;1795;52.074;4.754;2023-04-29T14:08:16;18.60;99.90
3562;DHT22;1795;52.074;4.754;2023-04-29T14:10:44;18.60;99.90
3562;DHT22;1795;52.074;4.754;2023-04-29T14:13:13;18.60;99.90
3562;DHT22;1795;52.074;4.754;2023-04-29T14:15:41;18.50;99.90
3562;DHT22;1795;52.074;4.754;2023-04-29T14:18:25;18.50;99.90
3562;DHT22;1795;52.074;4.754;2023-04-29T14:20:57;18.40;99.90
3562;DHT22;1795;52.074;4.754;2023-04-29T14:23:25;18.40;99.90
3562;DHT22;1795;52.074;4.754;2023-04-29T14:25:53;18.30;99.90
3562;DHT22;1795;52.074;4.754;2023-04-29T14:28:41;18.30;99.90
3562;DHT22;1795;52.074;4.754;2023-04-29T14:31:09;18.20;99.90
3562;DHT22;1795;52.074;4.754;2023-04-29T14:33:39;18.20;99.90
3562;DHT22;1795;52.074;4.754;2023-04-29T14:36:08;18.30;99.90
3562;DHT22;1795;52.074;4.754;2023-04-29T14:38:36;18.40;99.90
3562;DHT22;1795;52.074;4.754;2023-04-29T14:41:04;18.50;99.90
3562;DHT22;1795;52.074;4.754;2023-04-29T14:43:34;18.60;99.90
3562;DHT22;1795;52.074;4.754;2023-04-29T14:46:02;18.70;99.90
3562;DHT22;1795;52.074;4.754;2023-04-29T14:48:30;18.80;99.90
3562;DHT22;1795;52.074;4.754;2023-04-29T14:50:58;18.70;99.90
3562;DHT22;1795;52.074;4.754;2023-04-29T14:53:28;18.90;99.90
3562;DHT22;1795;52.074;4.754;2023-04-29T14:55:56;19.00;99.90
3562;DHT22;1795;52.074;4.754;2023-04-29T14:58:24;19.10;99.90
3562;DHT22;1795;52.074;4.754;2023-04-29T15:00:52;19.10;99.90
3562;DHT22;1795;52.074;4.754;2023-04-29T15:03:20;19.20;99.90
3562;DHT22;1795;52.074;4.754;2023-04-29T15:05:49;19.20;99.90
3562;DHT22;1795;52.074;4.754;2023-04-29T15:08:17;19.30;99.90
3562;DHT22;1795;52.074;4.754;2023-04-29T15:10:47;19.50;99.90
3562;DHT22;1795;52.074;4.754;2023-04-29T15:13:15;19.60;99.90
3562;DHT22;1795;52.074;4.754;2023-04-29T15:15:43;19.70;99.90
3562;DHT22;1795;52.074;4.754;2023-04-29T15:18:11;19.80;99.90
3562;DHT22;1795;52.074;4.754;2023-04-29T15:20:39;19.80;99.90
3562;DHT22;1795;52.074;4.754;2023-04-29T15:23:09;19.80;99.90
3562;DHT22;1795;52.074;4.754;2023-04-29T15:25:37;19.80;99.90
3562;DHT22;1795;52.074;4.754;2023-04-29T15:28:07;19.80;99.90
3562;DHT22;1795;52.074;4.754;2023-04-29T15:30:35;19.90;99.90
3562;DHT22;1795;52.074;4.754;2023-04-29T15:33:03;20.00;99.90
3562;DHT22;1795;52.074;4.754;2023-04-29T15:35:31;20.10;99.90
3562;DHT22;1795;52.074;4.754;2023-04-29T15:38:00;20.10;99.90
3562;DHT22;1795;52.074;4.754;2023-04-29T15:40:28;20.20;99.90
3562;DHT22;1795;52.074;4.754;2023-04-29T15:42:56;20.10;99.90
3562;DHT22;1795;52.074;4.754;2023-04-29T15:45:25;20.10;99.90
3562;DHT22;1795;52.074;4.754;2023-04-29T15:47:53;20.00;99.90
3562;DHT22;1795;52.074;4.754;2023-04-29T15:50:21;20.00;99.90
3562;DHT22;1795;52.074;4.754;2023-04-29T15:52:49;20.00;99.90
3562;DHT22;1795;52.074;4.754;2023-04-29T15:55:20;19.90;99.90
3562;DHT22;1795;52.074;4.754;2023-04-29T15:57:48;19.90;99.90
3562;DHT22;1795;52.074;4.754;2023-04-29T16:00:17;19.90;99.90
3562;DHT22;1795;52.074;4.754;2023-04-29T16:02:46;19.80;99.90
3562;DHT22;1795;52.074;4.754;2023-04-29T16:05:14;19.80;99.90
3562;DHT22;1795;52.074;4.754;2023-04-29T16:07:42;19.90;99.90
3562;DHT22;1795;52.074;4.754;2023-04-29T16:10:12;19.80;99.90
3562;DHT22;1795;52.074;4.754;2023-04-29T16:12:40;19.90;99.90
3562;DHT22;1795;52.074;4.754;2023-04-29T16:15:09;19.90;99.90
3562;DHT22;1795;52.074;4.754;2023-04-29T16:17:37;19.80;99.90
3562;DHT22;1795;52.074;4.754;2023-04-29T16:20:07;19.70;99.90